createdAt,value
2022-09-03T00:00:27.435Z,962.90
2022-09-03T00:01:27.808Z,962.84
2022-09-03T00:02:28.125Z,962.89
2022-09-03T00:03:28.331Z,962.87
2022-09-03T00:04:28.659Z,962.88
2022-09-03T00:05:28.973Z,962.87
2022-09-03T00:06:29.302Z,962.87
2022-09-03T00:07:29.631Z,962.84
2022-09-03T00:08:29.975Z,962.84
2022-09-03T00:09:30.167Z,962.90
2022-09-03T00:10:30.511Z,962.90
2022-09-03T00:11:30.699Z,962.88
2022-09-03T00:12:31.027Z,962.92
2022-09-03T00:13:31.341Z,962.97
2022-09-03T00:14:31.630Z,962.94
2022-09-03T00:15:31.979Z,962.96
2022-09-03T00:16:32.208Z,962.95
2022-09-03T00:17:32.400Z,962.96
2022-09-03T00:18:32.730Z,962.91
2022-09-03T00:19:33.078Z,962.91
2022-09-03T00:20:33.386Z,962.89
2022-09-03T00:21:33.689Z,962.91
2022-09-03T00:22:33.975Z,962.96
2022-09-03T00:23:34.262Z,962.94
2022-09-03T00:24:34.570Z,962.95
2022-09-03T00:25:34.884Z,962.92
2022-09-03T00:26:35.203Z,962.87
2022-09-03T00:27:35.521Z,962.93
2022-09-03T00:28:35.850Z,962.87
2022-09-03T00:29:36.168Z,962.90
2022-09-03T00:30:36.472Z,962.91
2022-09-03T00:31:36.824Z,962.89
2022-09-03T00:32:37.059Z,962.91
2022-09-03T00:33:37.378Z,962.96
2022-09-03T00:34:37.698Z,962.93
2022-09-03T00:35:38.020Z,962.89
2022-09-03T00:36:38.328Z,962.92
2022-09-03T00:37:42.347Z,962.91
2022-09-03T00:38:38.941Z,962.93
2022-09-03T00:39:39.176Z,962.91
2022-09-03T00:40:39.422Z,962.89
2022-09-03T00:41:39.741Z,962.89
2022-09-03T00:42:40.058Z,962.90
2022-09-03T00:43:40.378Z,962.89
2022-09-03T00:44:40.718Z,962.85
2022-09-03T00:45:41.021Z,962.86
2022-09-03T00:46:41.391Z,962.85
2022-09-03T00:47:41.618Z,962.77
2022-09-03T00:48:41.830Z,962.78
2022-09-03T00:49:42.139Z,962.77
2022-09-03T00:50:42.453Z,962.78
2022-09-03T00:51:42.751Z,962.82
2022-09-03T00:52:43.071Z,962.77
2022-09-03T02:56:15.997Z,963.97
2022-09-03T02:57:16.240Z,963.99
2022-09-03T02:58:16.587Z,963.95
2022-09-03T02:59:16.848Z,963.99
2022-09-03T03:00:17.071Z,963.93
2022-09-03T03:01:19.695Z,963.90
2022-09-03T03:02:18.683Z,963.88
2022-09-03T03:03:17.900Z,963.79
2022-09-03T03:04:18.241Z,963.74
2022-09-03T03:05:18.473Z,963.76
2022-09-03T03:06:18.711Z,963.75
2022-09-03T03:07:18.954Z,963.75
2022-09-03T03:08:19.193Z,963.73
2022-09-03T03:09:19.419Z,963.74
2022-09-03T03:10:19.744Z,963.73
2022-09-03T03:11:20.102Z,963.71
2022-09-03T03:12:20.315Z,963.67
2022-09-03T03:13:20.629Z,963.71
2022-09-03T03:14:20.958Z,963.75
2022-09-03T03:15:21.277Z,963.66
2022-09-03T03:16:21.708Z,963.72
2022-09-03T03:17:21.813Z,963.72
2022-09-03T03:18:22.213Z,963.76
2022-09-03T03:19:22.440Z,963.81
2022-09-03T03:20:22.765Z,963.87
2022-09-03T03:21:23.083Z,963.92
2022-09-03T03:22:23.427Z,963.98
2022-09-03T03:23:23.629Z,963.99
2022-09-03T03:24:23.958Z,963.98
2022-09-03T03:25:24.288Z,964.01
2022-09-03T03:26:24.571Z,964.01
2022-09-03T03:27:24.914Z,964.06
2022-09-03T03:28:25.235Z,964.07
2022-09-03T03:29:25.401Z,964.12
2022-09-03T03:30:25.749Z,964.11
2022-09-03T03:31:25.998Z,964.07
2022-09-03T03:32:26.317Z,964.08
2022-09-03T03:33:26.661Z,964.07
2022-09-03T03:34:26.869Z,964.08
2022-09-03T03:35:27.182Z,964.04
2022-09-03T03:36:27.480Z,964.02
2022-09-03T03:37:27.797Z,964.07
2022-09-03T03:38:28.133Z,964.03
2022-09-03T03:39:28.379Z,964.07
2022-09-03T03:40:28.650Z,964.05
2022-09-03T03:41:28.832Z,963.99
2022-09-03T03:42:29.116Z,963.98
2022-09-03T03:43:29.424Z,963.94
2022-09-03T03:44:29.759Z,963.96
2022-09-03T03:45:30.112Z,963.92
2022-09-03T03:46:30.304Z,963.99
2022-09-03T03:47:30.633Z,964.00
2022-09-03T03:48:30.958Z,964.00
2022-09-03T03:49:31.302Z,964.00
2022-09-03T03:50:31.661Z,964.01
2022-09-03T03:51:31.863Z,964.00
2022-09-03T03:52:32.187Z,964.03
2022-09-03T03:53:32.501Z,964.02
2022-09-03T03:54:32.806Z,964.05
2022-09-03T03:55:35.208Z,964.10
2022-09-03T03:56:33.427Z,964.07
2022-09-03T03:57:33.741Z,964.12
2022-09-03T03:58:34.028Z,964.10
2022-09-03T03:59:34.330Z,964.14
2022-09-03T04:00:34.681Z,964.12
2022-09-03T04:01:35.053Z,964.11
2022-09-03T04:02:39.031Z,964.13
2022-09-03T04:03:35.450Z,964.16
2022-09-03T04:04:35.784Z,964.16
2022-09-03T04:05:37.263Z,964.18
2022-09-03T04:06:36.290Z,964.09
2022-09-03T04:07:36.648Z,964.14
2022-09-03T04:08:36.853Z,964.14
2022-09-03T04:09:37.178Z,964.17
2022-09-03T04:10:37.485Z,964.16
2022-09-03T04:11:37.803Z,964.15
2022-09-03T04:12:38.137Z,964.19
2022-09-03T04:13:38.330Z,964.17
2022-09-03T04:14:38.645Z,964.17
2022-09-03T04:15:38.963Z,964.18
2022-09-03T04:16:39.340Z,964.17
2022-09-03T04:17:39.555Z,964.15
2022-09-03T04:18:39.875Z,964.16
2022-09-03T04:19:40.217Z,964.15
2022-09-03T04:20:40.536Z,964.22
2022-09-03T04:21:40.895Z,964.20
2022-09-03T04:22:41.107Z,964.17
2022-09-03T04:23:41.412Z,964.22
2022-09-03T04:24:41.720Z,964.30
2022-09-03T04:25:42.029Z,964.28
2022-09-03T04:26:42.342Z,964.30
2022-09-03T04:27:42.651Z,964.30
2022-09-03T04:28:42.967Z,964.26
2022-09-03T04:29:43.293Z,964.27
2022-09-03T04:30:43.593Z,964.26
2022-09-03T04:31:43.805Z,964.28
2022-09-03T04:32:44.055Z,964.34
2022-09-03T04:33:44.358Z,964.34
2022-09-03T04:34:44.680Z,964.37
2022-09-03T04:35:45.006Z,964.39
2022-09-03T04:36:47.180Z,964.42
2022-09-03T04:37:45.656Z,964.47
2022-09-03T04:38:45.991Z,964.42
2022-09-03T04:39:46.223Z,964.43
2022-09-03T04:40:46.502Z,964.44
2022-09-03T04:41:46.846Z,964.41
2022-09-03T04:42:47.165Z,964.48
2022-09-03T04:43:48.635Z,964.49
2022-09-03T04:44:47.726Z,964.56
2022-09-03T04:45:48.127Z,964.55
2022-09-03T04:46:48.338Z,964.53
2022-09-03T04:47:48.662Z,964.55
2022-09-03T04:48:48.972Z,964.57
2022-09-03T04:49:49.291Z,964.58
2022-09-03T04:50:49.614Z,964.58
2022-09-03T04:51:49.807Z,964.62
2022-09-03T04:52:50.095Z,964.61
2022-09-03T04:53:50.394Z,964.65
2022-09-03T04:54:50.716Z,964.66
2022-09-03T04:55:51.070Z,964.68
2022-09-03T04:56:51.263Z,964.67
2022-09-03T04:57:51.598Z,964.65
2022-09-03T04:58:51.902Z,964.65
2022-09-03T04:59:52.235Z,964.66
2022-09-03T05:00:52.599Z,964.62
2022-09-03T05:01:53.021Z,964.67
2022-09-03T05:02:53.161Z,964.67
2022-09-03T05:03:53.394Z,964.67
2022-09-03T05:04:53.597Z,964.69
2022-09-03T05:05:53.875Z,964.72
2022-09-03T05:06:54.178Z,964.71
2022-09-03T05:07:54.497Z,964.75
2022-09-03T05:08:54.846Z,964.76
2022-09-03T05:09:55.064Z,964.72
2022-09-03T05:10:55.398Z,964.78
2022-09-03T05:11:55.723Z,964.73
2022-09-03T05:12:56.051Z,964.74
2022-09-03T05:13:56.354Z,964.74
2022-09-03T05:14:56.673Z,964.72
2022-09-03T05:15:57.091Z,964.76
2022-09-03T05:16:57.380Z,964.79
2022-09-03T05:17:57.576Z,964.77
2022-09-03T05:18:57.898Z,964.79
2022-09-03T05:19:58.208Z,964.82
2022-09-03T05:20:58.507Z,964.82
2022-09-03T05:21:58.824Z,964.84
2022-09-03T05:22:59.127Z,964.80
2022-09-03T05:23:59.425Z,964.82
2022-09-03T05:24:59.724Z,964.74
2022-09-03T05:26:00.039Z,964.67
2022-09-03T05:27:00.395Z,964.63
2022-09-03T05:28:00.594Z,964.63
2022-09-03T05:29:00.938Z,964.60
2022-09-03T05:30:01.141Z,964.61
2022-09-03T05:31:01.444Z,964.64
2022-09-03T05:32:01.804Z,964.60
2022-09-03T05:33:02.048Z,964.59
2022-09-03T05:34:02.366Z,964.61
2022-09-03T05:35:02.684Z,964.56
2022-09-03T05:36:02.998Z,964.54
2022-09-03T05:37:03.317Z,964.57
2022-09-03T05:38:03.615Z,964.53
2022-09-03T05:39:03.964Z,964.51
2022-09-03T05:40:04.243Z,964.46
2022-09-03T05:41:04.456Z,964.48
2022-09-03T05:42:04.744Z,964.47
2022-09-03T05:43:08.416Z,964.50
2022-09-03T05:44:05.401Z,964.46
2022-09-03T05:45:05.713Z,964.47
2022-09-03T05:46:06.074Z,964.50
2022-09-03T05:47:06.373Z,964.52
2022-09-03T05:48:06.582Z,964.50
2022-09-03T05:49:06.935Z,964.52
2022-09-03T05:50:07.168Z,964.48
2022-09-03T05:51:07.366Z,964.48
2022-09-03T05:52:07.684Z,964.46
2022-09-03T05:53:07.988Z,964.51
2022-09-03T05:54:08.350Z,964.55
2022-09-03T05:55:11.692Z,964.57
2022-09-03T05:56:08.871Z,964.60
2022-09-03T05:57:09.187Z,964.62
2022-09-03T05:58:09.507Z,964.62
2022-09-03T05:59:09.814Z,964.62
2022-09-03T06:00:10.158Z,964.68
2022-09-03T06:01:10.361Z,964.66
2022-09-03T06:02:10.775Z,964.64
2022-09-03T06:03:11.040Z,964.68
2022-09-03T06:04:11.197Z,964.65
2022-09-03T06:05:11.545Z,964.65
2022-09-03T06:06:11.750Z,964.67
2022-09-03T06:07:12.067Z,964.64
2022-09-03T06:08:12.396Z,964.61
2022-09-03T06:09:12.725Z,964.63
2022-09-03T06:10:13.044Z,964.57
2022-09-03T06:11:13.328Z,964.58
2022-09-03T06:12:13.646Z,964.55
2022-09-03T06:13:13.971Z,964.58
2022-09-03T06:14:14.325Z,964.55
2022-09-03T06:15:14.527Z,964.58
2022-09-03T06:16:14.871Z,964.61
2022-09-03T06:17:15.069Z,964.64
2022-09-03T06:18:15.351Z,964.66
2022-09-03T06:19:15.675Z,964.72
2022-09-03T06:20:15.979Z,964.65
2022-09-03T06:21:16.297Z,964.60
2022-09-03T06:22:16.641Z,964.61
2022-09-03T06:23:16.854Z,964.68
2022-09-03T06:24:17.185Z,964.61
2022-09-03T06:25:17.487Z,964.66
2022-09-03T06:26:17.815Z,964.64
2022-09-03T06:27:18.155Z,964.68
2022-09-03T06:28:18.352Z,964.69
2022-09-03T06:29:19.659Z,964.65
2022-09-03T06:30:18.914Z,964.70
2022-09-03T06:31:19.269Z,964.69
2022-09-03T06:32:19.520Z,964.68
2022-09-03T06:33:19.764Z,964.69
2022-09-03T06:34:19.997Z,964.70
2022-09-03T06:35:20.316Z,964.71
2022-09-03T06:36:20.624Z,964.71
2022-09-03T06:37:20.960Z,964.72
2022-09-03T06:38:21.163Z,964.69
2022-09-03T06:39:21.534Z,964.63
2022-09-03T06:40:21.773Z,964.62
2022-09-03T06:41:22.092Z,964.59
2022-09-03T06:42:22.443Z,964.58
2022-09-03T06:43:22.649Z,964.60
2022-09-03T06:44:22.967Z,964.59
2022-09-03T06:45:23.287Z,964.56
2022-09-03T06:46:23.939Z,964.57
2022-09-03T06:47:23.959Z,964.59
2022-09-03T06:48:24.376Z,964.59
2022-09-03T06:49:24.545Z,964.59
2022-09-03T06:50:24.794Z,964.57
2022-09-03T06:51:24.992Z,964.58
2022-09-03T06:52:25.311Z,964.56
2022-09-03T06:53:25.614Z,964.57
2022-09-03T06:54:26.956Z,964.52
2022-09-03T06:55:26.211Z,964.53
2022-09-03T06:56:26.534Z,964.51
2022-09-03T06:57:26.865Z,964.48
2022-09-03T06:58:27.179Z,964.52
2022-09-03T06:59:27.456Z,964.47
2022-09-03T07:00:27.659Z,964.43
2022-09-03T07:01:27.961Z,964.44
2022-09-03T07:02:28.313Z,964.42
2022-09-03T07:03:28.545Z,964.43
2022-09-03T07:04:29.098Z,964.44
2022-09-03T07:05:29.118Z,964.41
2022-09-03T07:06:29.410Z,964.37
2022-09-03T07:07:29.734Z,964.30
2022-09-03T07:08:30.068Z,964.31
2022-09-03T07:09:30.406Z,964.32
2022-09-03T07:10:30.611Z,964.26
2022-09-03T07:11:30.941Z,964.30
2022-09-03T07:12:31.241Z,964.29
2022-09-03T07:13:31.542Z,964.30
2022-09-03T07:14:31.885Z,964.33
2022-09-03T07:15:32.203Z,964.30
2022-09-03T07:16:32.525Z,964.30
2022-09-03T07:17:32.800Z,964.31
2022-09-03T07:18:32.992Z,964.34
2022-09-03T07:19:33.310Z,964.32
2022-09-03T07:20:33.621Z,964.31
2022-09-03T07:21:33.962Z,964.38
2022-09-03T07:22:34.284Z,964.38
2022-09-03T07:23:34.607Z,964.38
2022-09-03T07:24:34.950Z,964.39
2022-09-03T07:25:35.137Z,964.38
2022-09-03T07:26:35.458Z,964.40
2022-09-03T07:27:35.770Z,964.35
2022-09-03T07:28:36.084Z,964.40
2022-09-03T07:29:36.433Z,964.38
2022-09-03T07:30:36.742Z,964.35
2022-09-03T07:31:37.006Z,964.38
2022-09-03T07:32:37.203Z,964.35
2022-09-03T07:33:37.491Z,964.37
2022-09-03T07:34:37.824Z,964.37
2022-09-03T07:35:38.037Z,964.41
2022-09-03T07:36:38.391Z,964.40
2022-09-03T07:37:38.665Z,964.39
2022-09-03T07:38:38.986Z,964.32
2022-09-03T07:39:39.312Z,964.34
2022-09-03T07:40:39.536Z,964.31
2022-09-03T07:41:39.875Z,964.34
2022-09-03T07:42:40.083Z,964.33
2022-09-03T07:43:40.397Z,964.37
2022-09-03T07:44:40.734Z,964.34
2022-09-03T07:45:41.048Z,964.36
2022-09-03T07:46:41.375Z,964.38
2022-09-03T07:47:41.601Z,964.36
2022-09-03T07:48:41.949Z,964.34
2022-09-03T07:49:42.126Z,964.34
2022-09-03T07:50:42.415Z,964.34
2022-09-03T07:51:42.723Z,964.31
2022-09-03T07:52:43.007Z,964.35
2022-09-03T07:53:43.331Z,964.35
2022-09-03T07:54:43.635Z,964.31
2022-09-03T07:55:43.960Z,964.29
2022-09-03T07:56:44.273Z,964.32
2022-09-03T07:57:44.596Z,964.28
2022-09-03T07:58:44.937Z,964.29
2022-09-03T07:59:45.259Z,964.25
2022-09-03T08:00:45.599Z,964.24
2022-09-03T08:01:45.817Z,964.19
2022-09-03T08:02:46.612Z,964.16
2022-09-03T08:03:46.448Z,964.16
2022-09-03T08:04:46.665Z,964.17
2022-09-03T08:05:47.011Z,964.15
2022-09-03T08:06:47.229Z,964.11
2022-09-03T08:07:47.556Z,964.13
2022-09-03T08:08:47.916Z,964.15
2022-09-03T08:09:48.158Z,964.15
2022-09-03T08:10:48.347Z,964.12
2022-09-03T08:11:48.670Z,964.16
2022-09-03T08:12:48.988Z,964.15
2022-09-03T08:13:49.308Z,964.19
2022-09-03T08:14:49.656Z,964.22
2022-09-03T08:15:49.875Z,964.23
2022-09-03T08:16:50.114Z,964.21
2022-09-03T08:17:50.436Z,964.22
2022-09-03T08:18:50.754Z,964.20
2022-09-03T08:19:51.106Z,964.19
2022-09-03T08:20:51.428Z,964.21
2022-09-03T08:21:51.748Z,964.23
2022-09-03T08:22:52.055Z,964.22
2022-09-03T08:23:52.359Z,964.26
2022-09-03T08:24:52.698Z,964.24
2022-09-03T08:25:53.021Z,964.22
2022-09-03T08:26:53.339Z,964.22
2022-09-03T08:27:53.664Z,964.24
2022-09-03T08:28:53.978Z,964.24
2022-09-03T08:29:54.349Z,964.24
2022-09-03T08:30:54.584Z,964.26
2022-09-03T08:31:54.965Z,964.28
2022-09-03T08:32:55.187Z,964.25
2022-09-03T08:33:55.511Z,964.26
2022-09-03T08:34:55.849Z,964.30
2022-09-03T08:35:56.043Z,964.35
2022-09-03T08:36:56.360Z,964.34
2022-09-03T08:37:57.057Z,964.30
2022-09-03T08:38:56.993Z,964.29
2022-09-03T08:39:57.377Z,964.32
2022-09-03T08:40:57.591Z,964.34
2022-09-03T08:41:57.888Z,964.32
2022-09-03T08:42:58.183Z,964.33
2022-09-03T08:43:58.482Z,964.32
2022-09-03T08:44:58.779Z,964.31
2022-09-03T08:45:59.013Z,964.33
2022-09-03T08:46:59.352Z,964.30
2022-09-03T08:47:59.649Z,964.34
2022-09-03T08:48:59.940Z,964.32
2022-09-03T08:50:00.255Z,964.33
2022-09-03T08:51:00.551Z,964.27
2022-09-03T08:52:00.904Z,964.24
2022-09-03T08:53:01.091Z,964.26
2022-09-03T08:54:01.410Z,964.24
2022-09-03T08:55:01.721Z,964.21
2022-09-03T08:56:02.044Z,964.22
2022-09-03T08:57:02.393Z,964.26
2022-09-03T08:58:02.589Z,964.25
2022-09-03T08:59:02.898Z,964.22
2022-09-03T09:00:03.221Z,964.23
2022-09-03T09:01:03.547Z,964.22
2022-09-03T09:02:03.873Z,964.16
2022-09-03T09:03:04.093Z,964.17
2022-09-03T09:04:04.362Z,964.20
2022-09-03T09:05:06.266Z,964.16
2022-09-03T09:06:04.974Z,964.17
2022-09-03T09:07:05.281Z,964.12
2022-09-03T09:08:05.590Z,964.12
2022-09-03T09:09:05.905Z,964.12
2022-09-03T09:10:06.233Z,964.07
2022-09-03T09:11:06.557Z,964.08
2022-09-03T09:12:06.903Z,964.10
2022-09-03T09:13:07.103Z,964.07
2022-09-03T09:14:07.433Z,964.10
2022-09-03T09:15:07.772Z,964.04
2022-09-03T09:16:08.119Z,964.07
2022-09-03T09:17:08.302Z,964.13
2022-09-03T09:18:08.621Z,964.09
2022-09-03T09:19:08.910Z,964.13
2022-09-03T09:20:09.234Z,964.13
2022-09-03T09:21:09.431Z,964.15
2022-09-03T09:22:09.747Z,964.18
2022-09-03T09:23:10.189Z,964.22
2022-09-03T09:24:10.293Z,964.27
2022-09-03T09:25:10.643Z,964.26
2022-09-03T09:26:10.848Z,964.27
2022-09-03T09:27:15.899Z,964.27
2022-09-03T09:28:11.431Z,964.31
2022-09-03T09:29:11.749Z,964.28
2022-09-03T09:30:12.095Z,964.36
2022-09-03T09:31:12.513Z,964.35
2022-09-03T09:32:12.640Z,964.37
2022-09-03T09:33:12.954Z,964.41
2022-09-03T09:34:13.268Z,964.35
2022-09-03T09:35:13.591Z,964.36
2022-09-03T09:36:13.911Z,964.35
2022-09-03T09:37:14.264Z,964.37
2022-09-03T09:38:16.436Z,964.29
2022-09-03T09:39:14.745Z,964.30
2022-09-03T09:40:15.074Z,964.27
2022-09-03T09:41:15.373Z,964.30
2022-09-03T09:42:15.726Z,964.28
2022-09-03T09:43:15.945Z,964.28
2022-09-03T09:44:16.167Z,964.30
2022-09-03T09:45:16.479Z,964.30
2022-09-03T09:46:16.870Z,964.23
2022-09-03T09:47:17.129Z,964.24
2022-09-03T09:48:17.321Z,964.20
2022-09-03T09:49:17.626Z,964.14
2022-09-03T09:50:24.985Z,964.15
2022-09-03T09:51:19.270Z,964.15
2022-09-03T09:52:18.525Z,964.14
2022-09-03T09:53:18.872Z,964.14
2022-09-03T09:54:19.059Z,964.15
2022-09-03T09:55:19.375Z,964.18
2022-09-03T09:56:19.687Z,964.19
2022-09-03T09:57:19.938Z,964.19
2022-09-03T09:58:20.278Z,964.19
2022-09-03T09:59:20.464Z,964.19
2022-09-03T10:00:20.763Z,964.21
2022-09-03T10:01:21.118Z,964.16
2022-09-03T10:02:22.157Z,964.16
2022-09-03T10:03:21.678Z,964.12
2022-09-03T10:04:21.987Z,964.13
2022-09-03T10:05:22.301Z,964.08
2022-09-03T10:06:22.605Z,964.08
2022-09-03T10:07:22.921Z,964.08
2022-09-03T10:08:23.265Z,964.08
2022-09-03T10:09:30.811Z,964.14
2022-09-03T10:10:24.881Z,964.12
2022-09-03T10:11:24.177Z,964.16
2022-09-03T10:12:24.370Z,964.11
2022-09-03T10:13:24.684Z,964.11
2022-09-03T10:14:24.988Z,964.10
2022-09-03T10:15:25.271Z,964.10
2022-09-03T10:16:25.674Z,964.14
2022-09-03T10:17:33.483Z,964.09
2022-09-03T10:18:27.446Z,964.13
2022-09-03T10:19:26.417Z,964.13
2022-09-03T10:20:26.698Z,964.15
2022-09-03T10:21:27.047Z,964.16
2022-09-03T10:22:27.352Z,964.20
2022-09-03T10:23:28.652Z,964.18
2022-09-03T10:24:27.899Z,964.22
2022-09-03T10:25:28.188Z,964.18
2022-09-03T10:26:28.540Z,964.21
2022-09-03T10:27:28.768Z,964.21
2022-09-03T10:28:29.036Z,964.25
2022-09-03T10:29:29.335Z,964.26
2022-09-03T10:30:29.613Z,964.26
2022-09-03T10:31:29.970Z,964.32
2022-09-03T10:32:38.861Z,964.40
2022-09-03T10:33:31.534Z,964.37
2022-09-03T10:34:30.767Z,964.40
2022-09-03T10:35:31.047Z,964.39
2022-09-03T10:36:31.356Z,964.35
2022-09-03T10:37:31.703Z,964.45
2022-09-03T10:38:31.882Z,964.45
2022-09-03T10:39:32.193Z,964.53
2022-09-03T10:40:33.471Z,964.59
2022-09-03T10:41:32.711Z,964.66
2022-09-03T10:42:33.040Z,964.72
2022-09-03T10:43:33.339Z,964.76
2022-09-03T10:44:33.652Z,964.81
2022-09-03T10:45:37.787Z,964.92
2022-09-03T10:46:34.338Z,964.95
2022-09-03T10:47:34.583Z,965.02
2022-09-03T10:48:34.877Z,965.02
2022-09-03T10:49:35.190Z,964.97
2022-09-03T10:50:35.495Z,964.94
2022-09-03T10:51:35.789Z,964.99
2022-09-03T10:52:36.141Z,965.02
2022-09-03T10:53:36.429Z,965.08
2022-09-03T10:54:36.735Z,965.08
2022-09-03T10:55:37.052Z,965.11
2022-09-03T10:56:37.351Z,965.24
2022-09-03T10:57:37.690Z,965.32
2022-09-03T10:58:37.883Z,965.38
2022-09-03T10:59:38.210Z,965.50
2022-09-03T11:00:38.500Z,965.67
2022-09-03T11:01:38.851Z,965.64
2022-09-03T11:02:39.167Z,965.65
2022-09-03T11:03:39.441Z,965.55
2022-09-03T11:04:39.624Z,965.50
2022-09-03T11:05:39.969Z,965.51
2022-09-03T11:06:40.190Z,965.52
2022-09-03T11:07:40.488Z,965.49
2022-09-03T11:08:40.834Z,965.45
2022-09-03T11:09:41.136Z,965.42
2022-09-03T11:10:41.449Z,965.47
2022-09-03T11:11:42.582Z,965.42
2022-09-03T11:12:42.078Z,965.38
2022-09-03T11:13:42.419Z,965.36
2022-09-03T11:14:42.755Z,965.33
2022-09-03T11:15:43.120Z,965.36
2022-09-03T11:16:43.296Z,965.41
2022-09-03T11:17:43.540Z,965.42
2022-09-03T11:18:43.834Z,965.43
2022-09-03T11:19:44.172Z,965.38
2022-09-03T11:20:44.491Z,965.41
2022-09-03T11:21:44.795Z,965.36
2022-09-03T11:22:45.124Z,965.35
2022-09-03T11:23:45.426Z,965.36
2022-09-03T11:24:45.762Z,965.30
2022-09-03T11:25:46.075Z,965.25
2022-09-03T11:26:46.384Z,965.27
2022-09-03T11:27:46.681Z,965.28
2022-09-03T11:28:46.964Z,965.30
2022-09-03T11:29:47.303Z,965.25
2022-09-03T11:30:47.656Z,965.22
2022-09-03T11:31:47.898Z,965.15
2022-09-03T11:32:48.195Z,965.11
2022-09-03T11:33:48.473Z,965.10
2022-09-03T11:34:48.736Z,965.14
2022-09-03T11:35:49.026Z,965.13
2022-09-03T11:36:49.346Z,965.13
2022-09-03T11:37:49.683Z,965.11
2022-09-03T11:38:49.991Z,965.14
2022-09-03T11:39:50.443Z,965.12
2022-09-03T11:40:50.537Z,965.15
2022-09-03T11:41:50.846Z,965.20
2022-09-03T11:42:51.174Z,965.19
2022-09-03T11:43:51.485Z,965.23
2022-09-03T11:44:52.142Z,965.22
2022-09-03T11:45:52.061Z,965.29
2022-09-03T11:46:52.259Z,965.29
2022-09-03T11:47:52.571Z,965.24
2022-09-03T11:48:52.845Z,965.24
2022-09-03T11:49:53.176Z,965.24
2022-09-03T11:50:53.495Z,965.24
2022-09-03T11:51:53.834Z,965.25
2022-09-03T11:52:54.150Z,965.27
2022-09-03T11:53:54.479Z,965.25
2022-09-03T11:54:54.808Z,965.31
2022-09-03T11:55:55.306Z,965.33
2022-09-03T11:56:55.289Z,965.34
2022-09-03T11:57:55.596Z,965.30
2022-09-03T11:58:55.906Z,965.36
2022-09-03T11:59:56.235Z,965.38
2022-09-03T12:00:56.471Z,965.31
2022-09-03T12:01:56.768Z,965.38
2022-09-03T12:02:59.187Z,965.41
2022-09-03T12:03:57.326Z,965.41
2022-09-03T12:04:57.729Z,965.47
2022-09-03T12:05:57.918Z,965.45
2022-09-03T12:06:58.215Z,965.48
2022-09-03T12:07:58.530Z,965.46
2022-09-03T12:08:58.836Z,965.45
2022-09-03T12:09:59.175Z,965.50
2022-09-03T12:10:59.493Z,965.43
2022-09-03T12:11:59.812Z,965.44
2022-09-03T12:13:00.116Z,965.46
2022-09-03T12:14:00.419Z,965.48
2022-09-03T12:15:00.745Z,965.43
2022-09-03T12:16:01.012Z,965.40
2022-09-03T12:17:01.225Z,965.43
2022-09-03T12:18:01.540Z,965.41
2022-09-03T12:19:01.853Z,965.41
2022-09-03T12:20:02.197Z,965.41
2022-09-03T12:21:02.500Z,965.44
2022-09-03T12:22:02.798Z,965.42
2022-09-03T12:23:03.114Z,965.42
2022-09-03T12:24:03.407Z,965.35
2022-09-03T12:25:03.745Z,965.34
2022-09-03T12:26:04.050Z,965.40
2022-09-03T12:27:04.352Z,965.35
2022-09-03T12:28:04.654Z,965.47
2022-09-03T12:29:04.928Z,965.39
2022-09-03T12:30:05.298Z,965.33
2022-09-03T12:31:05.688Z,965.29
2022-09-03T12:32:05.850Z,965.25
2022-09-03T12:33:06.215Z,965.29
2022-09-03T12:34:06.451Z,965.28
2022-09-03T12:35:06.750Z,965.29
2022-09-03T12:36:07.065Z,965.24
2022-09-03T12:37:07.372Z,965.22
2022-09-03T12:38:09.959Z,965.26
2022-09-03T12:39:11.958Z,965.21
2022-09-03T12:40:09.041Z,965.25
2022-09-03T12:41:26.966Z,965.31
2022-09-03T12:42:09.824Z,965.31
2022-09-03T12:44:10.380Z,965.32
2022-09-03T12:45:09.629Z,965.29
2022-09-03T12:46:10.700Z,965.33
2022-09-03T12:48:11.605Z,965.24
2022-09-03T12:50:12.221Z,965.27
2022-09-03T12:52:12.754Z,965.25
2022-09-03T12:53:12.004Z,965.26
2022-09-03T12:54:12.312Z,965.32
2022-09-03T12:55:12.881Z,965.35
2022-09-03T12:56:12.873Z,965.24
2022-09-03T12:57:13.202Z,965.25
2022-09-03T12:58:14.164Z,965.26
2022-09-03T12:59:13.750Z,965.26
2022-09-03T13:00:14.109Z,965.21
2022-09-03T13:01:14.400Z,965.16
2022-09-03T13:02:14.619Z,965.17
2022-09-03T13:03:14.808Z,965.21
2022-09-03T13:04:15.118Z,965.17
2022-09-03T13:05:15.453Z,965.21
2022-09-03T13:06:15.774Z,965.18
2022-09-03T13:07:16.091Z,965.19
2022-09-03T13:08:16.411Z,965.14
2022-09-03T13:09:16.760Z,965.18
2022-09-03T13:10:16.987Z,965.06
2022-09-03T13:11:17.201Z,965.04
2022-09-03T13:12:17.514Z,965.02
2022-09-03T13:13:17.834Z,965.09
2022-09-03T13:14:18.133Z,965.03
2022-09-03T13:15:18.425Z,965.01
2022-09-03T13:16:18.825Z,965.02
2022-09-03T13:17:19.068Z,965.05
2022-09-03T13:18:19.377Z,965.01
2022-09-03T13:19:19.701Z,965.00
2022-09-03T13:20:20.014Z,964.91
2022-09-03T13:21:20.332Z,964.92
2022-09-03T13:22:20.688Z,964.91
2022-09-03T13:23:20.879Z,964.95
2022-09-03T13:24:21.194Z,964.92
2022-09-03T13:25:21.512Z,964.91
2022-09-03T13:26:21.816Z,964.89
2022-09-03T13:27:22.134Z,965.05
2022-09-03T13:28:22.436Z,965.01
2022-09-03T13:29:22.745Z,964.94
2022-09-03T13:30:23.095Z,964.93
2022-09-03T13:31:23.395Z,965.00
2022-09-03T13:32:23.698Z,965.01
2022-09-03T13:33:24.074Z,965.01
2022-09-03T13:34:25.283Z,964.95
2022-09-03T13:35:24.527Z,964.91
2022-09-03T13:36:24.831Z,964.89
2022-09-03T13:37:25.146Z,964.97
2022-09-03T13:38:25.440Z,965.02
2022-09-03T13:39:25.822Z,964.92
2022-09-03T13:40:26.056Z,965.00
2022-09-03T13:41:26.259Z,965.00
2022-09-03T13:42:27.554Z,964.97
2022-09-03T13:43:26.805Z,964.93
2022-09-03T13:44:27.134Z,964.98
2022-09-03T13:45:27.483Z,964.95
2022-09-03T13:46:27.752Z,965.01
2022-09-03T13:47:28.004Z,964.94
2022-09-03T13:48:28.207Z,964.98
2022-09-03T13:49:28.502Z,965.04
2022-09-03T13:50:28.804Z,964.99
2022-09-03T13:51:29.128Z,964.93
2022-09-03T13:52:29.316Z,964.98
2022-09-03T13:53:29.640Z,965.00
2022-09-03T13:54:48.153Z,964.91
2022-09-03T13:55:31.244Z,964.92
2022-09-03T13:56:30.535Z,964.92
2022-09-03T13:57:30.727Z,964.88
2022-09-03T13:58:31.032Z,964.93
2022-09-03T13:59:31.254Z,964.89
2022-09-03T14:00:31.477Z,964.95
2022-09-03T14:01:31.867Z,964.96
2022-09-03T14:02:32.124Z,964.96
2022-09-03T14:03:32.257Z,964.94
2022-09-03T14:04:32.576Z,964.98
2022-09-03T14:05:32.874Z,964.92
2022-09-03T14:06:33.230Z,964.91
2022-09-03T14:07:33.411Z,964.94
2022-09-03T14:08:33.740Z,964.93
2022-09-03T14:09:34.096Z,964.95
2022-09-03T14:10:34.319Z,964.96
2022-09-03T14:11:34.672Z,964.84
2022-09-03T14:12:34.886Z,964.80
2022-09-03T14:13:35.233Z,964.85
2022-09-03T14:14:35.567Z,964.82
2022-09-03T14:15:35.880Z,964.86
2022-09-03T14:16:36.460Z,964.88
2022-09-03T14:17:36.526Z,964.85
2022-09-03T14:18:36.835Z,964.84
2022-09-03T14:19:37.180Z,964.80
2022-09-03T14:20:37.400Z,964.77
2022-09-03T14:21:37.703Z,964.76
2022-09-03T14:22:38.005Z,964.79
2022-09-03T14:23:38.319Z,964.83
2022-09-03T14:24:38.628Z,964.83
2022-09-03T14:25:38.992Z,964.78
2022-09-03T14:26:40.128Z,964.75
2022-09-03T14:27:39.453Z,964.76
2022-09-03T14:28:39.749Z,964.76
2022-09-03T14:29:40.080Z,964.72
2022-09-03T14:30:40.384Z,964.68
2022-09-03T14:31:40.769Z,964.78
2022-09-03T14:32:42.539Z,964.73
2022-09-03T14:33:41.214Z,964.76
2022-09-03T14:34:41.529Z,964.74
2022-09-03T14:35:41.841Z,964.73
2022-09-03T14:36:42.160Z,964.73
2022-09-03T14:37:42.468Z,964.77
2022-09-03T14:38:42.812Z,964.75